Sunray, Texas
Current Conditions -  °F | °C
As of 11:51 AM on Thursday 30 Oct 2014 (Local Time) from KBGD Reporting Station
Clear Clear  
Wind Chill: 19°   Ceiling: Unl
Heat Index: 19°   Visibility: 10mi
Dew Point: -3°   Wind: 16mph
Humidity: 23%   Direction: 50°NE
Pressure: 30.26"   Gusts: 23mph
Location:  36.02°N, 101.82°W
Report Text: KBGD 301651Z AUTO 05014G20KT 10SM CLR 19/M03 A3026 RMK AO2 SLP224 T01891028
Loading
Personal Weather Stations






























Interactive Weather Map
Tropical Storm Tracking
New forecast layout! Learn more

10-Day Weather Forecast

Advertisements
Track Severe Weather on mobile